Terminal Aerodrome Forecast
Issued by NWS Austin/San Antonio, TX

Home | Current Version | Previous Version | Text Only | Print | Product List | Glossary On
Versions: 1 2 3 4 5 6 7 8 9 10 11 12 13
000
FTUS44 KEWX 021727
TAFAUS
TAF
KAUS 021727Z 0218/0324 11007KT P6SM FEW060 FEW100
     FM030200 VRB03KT P6SM FEW250
     FM031700 13007KT P6SM FEW060=

USA.gov is the U.S. government's official web portal to all federal, state and local government web resources and services.